PWSweather.com
Personal Weather Stations
Station Observations
SHAHALMS1
Eftra, Falkenberg, HA

EftraFalkenberg, HA

Lat: 56.85, Lon: 12.65

Elevation: 140

Station Type:

http://hem.passagen.se/risarp101

High Low Average
Temperature 87.4°F30.8°C 60.4°F15.8°C 75.7°F24.3°C
Dew Point 66.9°F19.4°C 54.9°F12.7°C 58.7°F14.8°C
Winds 13.0 mph 20.9 kmh 0.1 mph 0.2 kmh 6.0 mph SE9.7 kmh SE
Wind Gusts 35.1 mph56.5 kmh 3.9 mph6.3 kmh 16.0 mph25.7 kmh
Humidity 82% 39% 58%
Pressure 29.65 in1004.1 mb 29.56 in1001.0 mb -
Precipitation 0.00 in0.0 mm - -
Hour Temp Dew Point Humidity Winds Wind Gusts Pressure Precip Precip Rate Daily Precip Total
12:00 AM 66.2°F19.0°C 58.0°F14.4°C 75% 3.3 mph E5.3 kmh E 9.3 mph15.0 kmh 29.62 in1003.0 mb 0.00 in0.0 mm 0.00 in0.0 mm 0.00 in0.0 mm
12:10 AM 66.0°F18.9°C 58.2°F14.6°C 76% 2.9 mph E4.7 kmh E 10.4 mph16.7 kmh 29.62 in1003.0 mb 0.00 in0.0 mm 0.00 in0.0 mm 0.00 in0.0 mm
12:20 AM 66.0°F18.9°C 58.2°F14.6°C 76% 3.3 mph E5.3 kmh E 9.7 mph15.6 kmh 29.62 in1003.0 mb 0.00 in0.0 mm 0.00 in0.0 mm 0.00 in0.0 mm
12:30 AM 66.0°F18.9°C 58.6°F14.8°C 77% 4.3 mph E6.9 kmh E 8.9 mph14.3 kmh 29.62 in1003.0 mb 0.00 in0.0 mm 0.00 in0.0 mm 0.00 in0.0 mm
12:40 AM 66.2°F19.0°C 58.4°F14.7°C 76% 3.5 mph E5.6 kmh E 12.5 mph20.1 kmh 29.62 in1003.0 mb 0.00 in0.0 mm 0.00 in0.0 mm 0.00 in0.0 mm
12:50 AM 66.4°F19.1°C 58.6°F14.8°C 76% 2.8 mph ENE4.5 kmh ENE 9.3 mph15.0 kmh 29.62 in1003.0 mb 0.00 in0.0 mm 0.00 in0.0 mm 0.00 in0.0 mm
01:00 AM 66.4°F19.1°C 58.6°F14.8°C 76% 3.5 mph ENE5.6 kmh ENE 9.7 mph15.6 kmh 29.62 in1003.0 mb 0.00 in0.0 mm 0.00 in0.0 mm 0.00 in0.0 mm
01:10 AM 66.2°F19.0°C 58.4°F14.7°C 76% 1.2 mph ENE1.9 kmh ENE 9.3 mph15.0 kmh 29.62 in1003.0 mb 0.00 in0.0 mm 0.00 in0.0 mm 0.00 in0.0 mm
01:20 AM 66.2°F19.0°C 58.4°F14.7°C 76% 1.9 mph ENE3.1 kmh ENE 7.5 mph12.1 kmh 29.62 in1003.0 mb 0.00 in0.0 mm 0.00 in0.0 mm 0.00 in0.0 mm
01:30 AM 65.8°F18.8°C 58.4°F14.7°C 77% 1.0 mph E1.6 kmh E 7.9 mph12.7 kmh 29.62 in1003.0 mb 0.00 in0.0 mm 0.00 in0.0 mm 0.00 in0.0 mm
01:40 AM 65.7°F18.7°C 58.6°F14.8°C 78% 2.3 mph E3.7 kmh E 8.6 mph13.8 kmh 29.62 in1003.0 mb 0.00 in0.0 mm 0.00 in0.0 mm 0.00 in0.0 mm
01:50 AM 65.7°F18.7°C 58.6°F14.8°C 78% 2.0 mph E3.2 kmh E 9.7 mph15.6 kmh 29.62 in1003.0 mb 0.00 in0.0 mm 0.00 in0.0 mm 0.00 in0.0 mm
02:00 AM 65.7°F18.7°C 58.6°F14.8°C 78% 1.2 mph ENE1.9 kmh ENE 6.4 mph10.3 kmh 29.62 in1003.0 mb 0.00 in0.0 mm 0.00 in0.0 mm 0.00 in0.0 mm
02:10 AM 65.7°F18.7°C 58.6°F14.8°C 78% 2.2 mph NE3.5 kmh NE 9.3 mph15.0 kmh 29.62 in1003.0 mb 0.00 in0.0 mm 0.00 in0.0 mm 0.00 in0.0 mm
02:20 AM 65.8°F18.8°C 58.8°F14.9°C 78% 2.4 mph ENE3.9 kmh ENE 8.9 mph14.3 kmh 29.62 in1003.0 mb 0.00 in0.0 mm 0.00 in0.0 mm 0.00 in0.0 mm
02:30 AM 65.8°F18.8°C 58.8°F14.9°C 78% 2.1 mph E3.4 kmh E 9.3 mph15.0 kmh 29.62 in1003.0 mb 0.00 in0.0 mm 0.00 in0.0 mm 0.00 in0.0 mm
02:40 AM 66.0°F18.9°C 59.0°F15.0°C 78% 3.9 mph ENE6.3 kmh ENE 12.9 mph20.8 kmh 29.62 in1003.0 mb 0.00 in0.0 mm 0.00 in0.0 mm 0.00 in0.0 mm
02:50 AM 66.0°F18.9°C 59.0°F15.0°C 78% 2.5 mph ENE4.0 kmh ENE 8.9 mph14.3 kmh 29.59 in1002.0 mb 0.00 in0.0 mm 0.00 in0.0 mm 0.00 in0.0 mm
03:00 AM 66.2°F19.0°C 58.8°F14.9°C 77% 2.8 mph E4.5 kmh E 8.6 mph13.8 kmh 29.62 in1003.0 mb 0.00 in0.0 mm 0.00 in0.0 mm 0.00 in0.0 mm
03:10 AM 66.4°F19.1°C 58.9°F14.9°C 77% 5.0 mph E8.0 kmh E 10.4 mph16.7 kmh 29.62 in1003.0 mb 0.00 in0.0 mm 0.00 in0.0 mm 0.00 in0.0 mm
03:20 AM 66.4°F19.1°C 58.9°F14.9°C 77% 5.1 mph E8.2 kmh E 11.1 mph17.9 kmh 29.62 in1003.0 mb 0.00 in0.0 mm 0.00 in0.0 mm 0.00 in0.0 mm
03:30 AM 66.6°F19.2°C 59.1°F15.1°C 77% 4.1 mph ENE6.6 kmh ENE 10.0 mph16.1 kmh 29.62 in1003.0 mb 0.00 in0.0 mm 0.00 in0.0 mm 0.00 in0.0 mm
03:40 AM 66.7°F19.3°C 58.9°F14.9°C 76% 4.6 mph E7.4 kmh E 11.8 mph19.0 kmh 29.62 in1003.0 mb 0.00 in0.0 mm 0.00 in0.0 mm 0.00 in0.0 mm
03:50 AM 66.9°F19.4°C 59.1°F15.1°C 76% 5.5 mph ENE8.9 kmh ENE 12.9 mph20.8 kmh 29.62 in1003.0 mb 0.00 in0.0 mm 0.00 in0.0 mm 0.00 in0.0 mm
04:00 AM 66.9°F19.4°C 59.1°F15.1°C 76% 4.3 mph ENE6.9 kmh ENE 10.0 mph16.1 kmh 29.59 in1002.0 mb 0.00 in0.0 mm 0.00 in0.0 mm 0.00 in0.0 mm
04:10 AM 66.9°F19.4°C 59.1°F15.1°C 76% 1.4 mph ENE2.3 kmh ENE 6.8 mph10.9 kmh 29.59 in1002.0 mb 0.00 in0.0 mm 0.00 in0.0 mm 0.00 in0.0 mm
04:20 AM 66.9°F19.4°C 59.1°F15.1°C 76% 0.1 mph ENE0.2 kmh ENE 3.9 mph6.3 kmh 29.59 in1002.0 mb 0.00 in0.0 mm 0.00 in0.0 mm 0.00 in0.0 mm
04:30 AM 66.9°F19.4°C 59.1°F15.1°C 76% 0.5 mph NE0.8 kmh NE 6.1 mph9.8 kmh 29.59 in1002.0 mb 0.00 in0.0 mm 0.00 in0.0 mm 0.00 in0.0 mm
04:40 AM 67.1°F19.5°C 59.6°F15.3°C 77% 1.2 mph ENE1.9 kmh ENE 10.4 mph16.7 kmh 29.59 in1002.0 mb 0.00 in0.0 mm 0.00 in0.0 mm 0.00 in0.0 mm
04:50 AM 67.1°F19.5°C 59.6°F15.3°C 77% 3.5 mph ENE5.6 kmh ENE 7.9 mph12.7 kmh 29.62 in1003.0 mb 0.00 in0.0 mm 0.00 in0.0 mm 0.00 in0.0 mm
05:00 AM 67.3°F19.6°C 59.8°F15.4°C 77% 5.0 mph E8.0 kmh E 13.6 mph21.9 kmh 29.62 in1003.0 mb 0.00 in0.0 mm 0.00 in0.0 mm 0.00 in0.0 mm
05:10 AM 67.6°F19.8°C 60.2°F15.7°C 77% 4.5 mph E7.2 kmh E 10.4 mph16.7 kmh 29.62 in1003.0 mb 0.00 in0.0 mm 0.00 in0.0 mm 0.00 in0.0 mm
05:20 AM 67.8°F19.9°C 60.3°F15.7°C 77% 3.9 mph E6.3 kmh E 11.8 mph19.0 kmh 29.59 in1002.0 mb 0.00 in0.0 mm 0.00 in0.0 mm 0.00 in0.0 mm
05:30 AM 68.2°F20.1°C 60.3°F15.7°C 76% 4.7 mph E7.6 kmh E 12.2 mph19.6 kmh 29.62 in1003.0 mb 0.00 in0.0 mm 0.00 in0.0 mm 0.00 in0.0 mm
05:40 AM 68.5°F20.3°C 60.7°F15.9°C 76% 6.1 mph E9.8 kmh E 12.5 mph20.1 kmh 29.62 in1003.0 mb 0.00 in0.0 mm 0.00 in0.0 mm 0.00 in0.0 mm
05:50 AM 68.7°F20.4°C 60.8°F16.0°C 76% 6.8 mph E10.9 kmh E 15.4 mph24.8 kmh 29.62 in1003.0 mb 0.00 in0.0 mm 0.00 in0.0 mm 0.00 in0.0 mm
06:00 AM 69.4°F20.8°C 61.5°F16.4°C 76% 5.7 mph E9.2 kmh E 12.5 mph20.1 kmh 29.62 in1003.0 mb 0.00 in0.0 mm 0.00 in0.0 mm 0.00 in0.0 mm
06:10 AM 73.4°F23.0°C 64.6°F18.1°C 74% 6.5 mph E10.5 kmh E 13.6 mph21.9 kmh 29.62 in1003.0 mb 0.00 in0.0 mm 0.00 in0.0 mm 0.00 in0.0 mm
06:20 AM 77.5°F25.3°C 65.7°F18.7°C 67% 6.0 mph E9.7 kmh E 14.3 mph23.0 kmh 29.62 in1003.0 mb 0.00 in0.0 mm 0.00 in0.0 mm 0.00 in0.0 mm
06:30 AM 81.1°F27.3°C 66.4°F19.1°C 61% 5.6 mph E9.0 kmh E 14.7 mph23.7 kmh 29.62 in1003.0 mb 0.00 in0.0 mm 0.00 in0.0 mm 0.00 in0.0 mm
06:40 AM 80.2°F26.8°C 63.1°F17.3°C 56% 7.1 mph E11.4 kmh E 14.7 mph23.7 kmh 29.62 in1003.0 mb 0.00 in0.0 mm 0.00 in0.0 mm 0.00 in0.0 mm
06:50 AM 84.4°F29.1°C 65.9°F18.8°C 54% 7.1 mph E11.4 kmh E 17.5 mph28.2 kmh 29.62 in1003.0 mb 0.00 in0.0 mm 0.00 in0.0 mm 0.00 in0.0 mm
07:00 AM 87.3°F30.7°C 66.9°F19.4°C 51% 7.9 mph E12.7 kmh E 16.1 mph25.9 kmh 29.62 in1003.0 mb 0.00 in0.0 mm 0.00 in0.0 mm 0.00 in0.0 mm
07:10 AM 87.4°F30.8°C 65.3°F18.5°C 48% 8.4 mph E13.5 kmh E 19.0 mph30.6 kmh 29.62 in1003.0 mb 0.00 in0.0 mm 0.00 in0.0 mm 0.00 in0.0 mm
07:20 AM 87.1°F30.6°C 64.4°F18.0°C 47% 7.9 mph E12.7 kmh E 19.0 mph30.6 kmh 29.62 in1003.0 mb 0.00 in0.0 mm 0.00 in0.0 mm 0.00 in0.0 mm
07:30 AM 86.5°F30.3°C 63.9°F17.7°C 47% 7.9 mph E12.7 kmh E 16.1 mph25.9 kmh 29.62 in1003.0 mb 0.00 in0.0 mm 0.00 in0.0 mm 0.00 in0.0 mm
07:40 AM 86.2°F30.1°C 63.0°F17.2°C 46% 8.9 mph E14.3 kmh E 17.5 mph28.2 kmh 29.62 in1003.0 mb 0.00 in0.0 mm 0.00 in0.0 mm 0.00 in0.0 mm
07:50 AM 86.2°F30.1°C 63.6°F17.6°C 47% 10.3 mph E16.6 kmh E 20.8 mph33.5 kmh 29.62 in1003.0 mb 0.00 in0.0 mm 0.00 in0.0 mm 0.00 in0.0 mm
08:00 AM 86.0°F30.0°C 62.8°F17.1°C 46% 9.7 mph ESE15.6 kmh ESE 20.4 mph32.8 kmh 29.62 in1003.0 mb 0.00 in0.0 mm 0.00 in0.0 mm 0.00 in0.0 mm
08:10 AM 86.4°F30.2°C 63.8°F17.7°C 47% 8.7 mph E14.0 kmh E 17.5 mph28.2 kmh 29.62 in1003.0 mb 0.00 in0.0 mm 0.00 in0.0 mm 0.00 in0.0 mm
08:20 AM 86.5°F30.3°C 63.3°F17.4°C 46% 9.4 mph E15.1 kmh E 19.7 mph31.7 kmh 29.62 in1003.0 mb 0.00 in0.0 mm 0.00 in0.0 mm 0.00 in0.0 mm
08:30 AM 86.4°F30.2°C 62.5°F16.9°C 45% 8.7 mph E14.0 kmh E 17.9 mph28.8 kmh 29.62 in1003.0 mb 0.00 in0.0 mm 0.00 in0.0 mm 0.00 in0.0 mm
08:40 AM 86.5°F30.3°C 63.3°F17.4°C 46% 8.6 mph E13.8 kmh E 26.5 mph42.6 kmh 29.62 in1003.0 mb 0.00 in0.0 mm 0.00 in0.0 mm 0.00 in0.0 mm
08:50 AM 86.2°F30.1°C 62.3°F16.8°C 45% 9.9 mph E15.9 kmh E 20.0 mph32.2 kmh 29.62 in1003.0 mb 0.00 in0.0 mm 0.00 in0.0 mm 0.00 in0.0 mm
09:00 AM 86.5°F30.3°C 62.7°F17.1°C 45% 7.5 mph E12.1 kmh E 19.0 mph30.6 kmh 29.59 in1002.0 mb 0.00 in0.0 mm 0.00 in0.0 mm 0.00 in0.0 mm
09:10 AM 86.0°F30.0°C 62.2°F16.8°C 45% 8.8 mph E14.2 kmh E 24.3 mph39.1 kmh 29.59 in1002.0 mb 0.00 in0.0 mm 0.00 in0.0 mm 0.00 in0.0 mm
09:20 AM 85.8°F29.9°C 62.0°F16.7°C 45% 8.7 mph ESE14.0 kmh ESE 21.1 mph34.0 kmh 29.59 in1002.0 mb 0.00 in0.0 mm 0.00 in0.0 mm 0.00 in0.0 mm
09:30 AM 85.3°F29.6°C 60.3°F15.7°C 43% 9.5 mph ESE15.3 kmh ESE 19.7 mph31.7 kmh 29.59 in1002.0 mb 0.00 in0.0 mm 0.00 in0.0 mm 0.00 in0.0 mm
09:40 AM 84.9°F29.4°C 60.6°F15.9°C 44% 9.8 mph SE15.8 kmh SE 24.3 mph39.1 kmh 29.59 in1002.0 mb 0.00 in0.0 mm 0.00 in0.0 mm 0.00 in0.0 mm
09:50 AM 84.7°F29.3°C 59.8°F15.4°C 43% 9.6 mph SE15.4 kmh SE 23.6 mph38.0 kmh 29.59 in1002.0 mb 0.00 in0.0 mm 0.00 in0.0 mm 0.00 in0.0 mm
10:00 AM 84.7°F29.3°C 60.4°F15.8°C 44% 9.4 mph SE15.1 kmh SE 26.1 mph42.0 kmh 29.62 in1003.0 mb 0.00 in0.0 mm 0.00 in0.0 mm 0.00 in0.0 mm
10:10 AM 84.7°F29.3°C 60.4°F15.8°C 44% 8.9 mph SE14.3 kmh SE 17.5 mph28.2 kmh 29.62 in1003.0 mb 0.00 in0.0 mm 0.00 in0.0 mm 0.00 in0.0 mm
10:20 AM 84.6°F29.2°C 60.9°F16.1°C 45% 9.9 mph ESE15.9 kmh ESE 24.7 mph39.8 kmh 29.62 in1003.0 mb 0.00 in0.0 mm 0.00 in0.0 mm 0.00 in0.0 mm
10:30 AM 84.0°F28.9°C 60.4°F15.8°C 45% 13.0 mph SE20.9 kmh SE 27.9 mph44.9 kmh 29.62 in1003.0 mb 0.00 in0.0 mm 0.00 in0.0 mm 0.00 in0.0 mm
10:40 AM 84.2°F29.0°C 59.3°F15.2°C 43% 12.6 mph SE20.3 kmh SE 35.1 mph56.5 kmh 29.62 in1003.0 mb 0.00 in0.0 mm 0.00 in0.0 mm 0.00 in0.0 mm
10:50 AM 84.2°F29.0°C 59.3°F15.2°C 43% 10.1 mph SE16.3 kmh SE 23.3 mph37.5 kmh 29.62 in1003.0 mb 0.00 in0.0 mm 0.00 in0.0 mm 0.00 in0.0 mm
11:00 AM 84.2°F29.0°C 59.3°F15.2°C 43% 12.3 mph SE19.8 kmh SE 27.2 mph43.8 kmh 29.62 in1003.0 mb 0.00 in0.0 mm 0.00 in0.0 mm 0.00 in0.0 mm
11:10 AM 84.0°F28.9°C 59.8°F15.4°C 44% 10.4 mph SE16.7 kmh SE 24.7 mph39.8 kmh 29.62 in1003.0 mb 0.00 in0.0 mm 0.00 in0.0 mm 0.00 in0.0 mm
11:20 AM 84.0°F28.9°C 59.8°F15.4°C 44% 11.1 mph SE17.9 kmh SE 25.4 mph40.9 kmh 29.59 in1002.0 mb 0.00 in0.0 mm 0.00 in0.0 mm 0.00 in0.0 mm
11:30 AM 84.9°F29.4°C 59.9°F15.5°C 43% 6.3 mph SE10.1 kmh SE 15.7 mph25.3 kmh 29.59 in1002.0 mb 0.00 in0.0 mm 0.00 in0.0 mm 0.00 in0.0 mm
11:40 AM 84.6°F29.2°C 58.9°F14.9°C 42% 10.4 mph SE16.7 kmh SE 30.8 mph49.6 kmh 29.59 in1002.0 mb 0.00 in0.0 mm 0.00 in0.0 mm 0.00 in0.0 mm
11:50 AM 84.7°F29.3°C 59.1°F15.1°C 42% 8.5 mph SE13.7 kmh SE 21.1 mph34.0 kmh 29.59 in1002.0 mb 0.00 in0.0 mm 0.00 in0.0 mm 0.00 in0.0 mm
12:00 PM 84.4°F29.1°C 58.1°F14.5°C 41% 11.7 mph SE18.8 kmh SE 24.7 mph39.8 kmh 29.62 in1003.0 mb 0.00 in0.0 mm 0.00 in0.0 mm 0.00 in0.0 mm
12:10 PM 84.2°F29.0°C 57.9°F14.4°C 41% 9.1 mph SE14.6 kmh SE 21.5 mph34.6 kmh 29.62 in1003.0 mb 0.00 in0.0 mm 0.00 in0.0 mm 0.00 in0.0 mm
12:20 PM 84.4°F29.1°C 58.1°F14.5°C 41% 10.5 mph SE16.9 kmh SE 24.7 mph39.8 kmh 29.59 in1002.0 mb 0.00 in0.0 mm 0.00 in0.0 mm 0.00 in0.0 mm
12:30 PM 84.4°F29.1°C 58.1°F14.5°C 41% 10.7 mph SE17.2 kmh SE 25.1 mph40.4 kmh 29.59 in1002.0 mb 0.00 in0.0 mm 0.00 in0.0 mm 0.00 in0.0 mm
12:40 PM 84.2°F29.0°C 58.6°F14.8°C 42% 8.2 mph ESE13.2 kmh ESE 21.1 mph34.0 kmh 29.59 in1002.0 mb 0.00 in0.0 mm 0.00 in0.0 mm 0.00 in0.0 mm
12:50 PM 84.2°F29.0°C 57.3°F14.1°C 40% 7.8 mph ESE12.6 kmh ESE 24.7 mph39.8 kmh 29.59 in1002.0 mb 0.00 in0.0 mm 0.00 in0.0 mm 0.00 in0.0 mm
01:00 PM 84.2°F29.0°C 57.9°F14.4°C 41% 9.3 mph ESE15.0 kmh ESE 21.1 mph34.0 kmh 29.59 in1002.0 mb 0.00 in0.0 mm 0.00 in0.0 mm 0.00 in0.0 mm
01:10 PM 84.2°F29.0°C 57.9°F14.4°C 41% 11.5 mph SE18.5 kmh SE 29.0 mph46.7 kmh 29.59 in1002.0 mb 0.00 in0.0 mm 0.00 in0.0 mm 0.00 in0.0 mm
01:20 PM 84.2°F29.0°C 57.9°F14.4°C 41% 8.4 mph ESE13.5 kmh ESE 22.5 mph36.2 kmh 29.59 in1002.0 mb 0.00 in0.0 mm 0.00 in0.0 mm 0.00 in0.0 mm
01:30 PM 84.2°F29.0°C 57.3°F14.1°C 40% 9.7 mph SE15.6 kmh SE 20.4 mph32.8 kmh 29.59 in1002.0 mb 0.00 in0.0 mm 0.00 in0.0 mm 0.00 in0.0 mm
01:40 PM 84.2°F29.0°C 57.3°F14.1°C 40% 10.5 mph SE16.9 kmh SE 23.6 mph38.0 kmh 29.59 in1002.0 mb 0.00 in0.0 mm 0.00 in0.0 mm 0.00 in0.0 mm
01:50 PM 84.2°F29.0°C 57.3°F14.1°C 40% 9.9 mph SE15.9 kmh SE 27.2 mph43.8 kmh 29.59 in1002.0 mb 0.00 in0.0 mm 0.00 in0.0 mm 0.00 in0.0 mm
02:00 PM 84.6°F29.2°C 57.6°F14.2°C 40% 9.2 mph SE14.8 kmh SE 24.7 mph39.8 kmh 29.59 in1002.0 mb 0.00 in0.0 mm 0.00 in0.0 mm 0.00 in0.0 mm
02:10 PM 84.6°F29.2°C 57.6°F14.2°C 40% 9.7 mph SE15.6 kmh SE 21.1 mph34.0 kmh 29.59 in1002.0 mb 0.00 in0.0 mm 0.00 in0.0 mm 0.00 in0.0 mm
02:20 PM 84.4°F29.1°C 57.4°F14.1°C 40% 10.3 mph ESE16.6 kmh ESE 24.7 mph39.8 kmh 29.56 in1001.0 mb 0.00 in0.0 mm 0.00 in0.0 mm 0.00 in0.0 mm
02:30 PM 84.7°F29.3°C 58.4°F14.7°C 41% 7.2 mph SE11.6 kmh SE 19.7 mph31.7 kmh 29.56 in1001.0 mb 0.00 in0.0 mm 0.00 in0.0 mm 0.00 in0.0 mm
02:40 PM 84.2°F29.0°C 56.6°F13.7°C 39% 10.7 mph SE17.2 kmh SE 21.1 mph34.0 kmh 29.56 in1001.0 mb 0.00 in0.0 mm 0.00 in0.0 mm 0.00 in0.0 mm
02:50 PM 84.0°F28.9°C 57.8°F14.3°C 41% 9.2 mph SE14.8 kmh SE 24.3 mph39.1 kmh 29.59 in1002.0 mb 0.00 in0.0 mm 0.00 in0.0 mm 0.00 in0.0 mm
03:00 PM 83.7°F28.7°C 56.8°F13.8°C 40% 8.3 mph SE13.4 kmh SE 22.9 mph36.9 kmh 29.56 in1001.0 mb 0.00 in0.0 mm 0.00 in0.0 mm 0.00 in0.0 mm
03:10 PM 83.5°F28.6°C 57.3°F14.1°C 41% 9.9 mph SE15.9 kmh SE 29.7 mph47.8 kmh 29.56 in1001.0 mb 0.00 in0.0 mm 0.00 in0.0 mm 0.00 in0.0 mm
03:20 PM 83.7°F28.7°C 57.5°F14.2°C 41% 6.6 mph SE10.6 kmh SE 16.1 mph25.9 kmh 29.56 in1001.0 mb 0.00 in0.0 mm 0.00 in0.0 mm 0.00 in0.0 mm
03:30 PM 83.1°F28.4°C 57.0°F13.9°C 41% 9.9 mph SE15.9 kmh SE 28.6 mph46.0 kmh 29.59 in1002.0 mb 0.00 in0.0 mm 0.00 in0.0 mm 0.00 in0.0 mm
03:40 PM 82.6°F28.1°C 55.8°F13.2°C 40% 11.4 mph SSE18.3 kmh SSE 21.1 mph34.0 kmh 29.59 in1002.0 mb 0.00 in0.0 mm 0.00 in0.0 mm 0.00 in0.0 mm
03:50 PM 82.8°F28.2°C 57.3°F14.1°C 42% 8.1 mph SE13.0 kmh SE 21.5 mph34.6 kmh 29.59 in1002.0 mb 0.00 in0.0 mm 0.00 in0.0 mm 0.00 in0.0 mm
04:00 PM 82.9°F28.3°C 56.8°F13.8°C 41% 5.4 mph S8.7 kmh S 13.6 mph21.9 kmh 29.59 in1002.0 mb 0.00 in0.0 mm 0.00 in0.0 mm 0.00 in0.0 mm
04:10 PM 83.1°F28.4°C 57.0°F13.9°C 41% 5.7 mph S9.2 kmh S 16.5 mph26.6 kmh 29.59 in1002.0 mb 0.00 in0.0 mm 0.00 in0.0 mm 0.00 in0.0 mm
04:20 PM 82.6°F28.1°C 56.5°F13.6°C 41% 8.2 mph S13.2 kmh S 23.6 mph38.0 kmh 29.59 in1002.0 mb 0.00 in0.0 mm 0.00 in0.0 mm 0.00 in0.0 mm
04:30 PM 82.6°F28.1°C 57.2°F14.0°C 42% 6.3 mph S10.1 kmh S 20.0 mph32.2 kmh 29.62 in1003.0 mb 0.00 in0.0 mm 0.00 in0.0 mm 0.00 in0.0 mm
04:40 PM 82.2°F27.9°C 56.8°F13.8°C 42% 7.0 mph S11.3 kmh S 17.5 mph28.2 kmh 29.62 in1003.0 mb 0.00 in0.0 mm 0.00 in0.0 mm 0.00 in0.0 mm
04:50 PM 82.2°F27.9°C 57.5°F14.2°C 43% 5.6 mph SSE9.0 kmh SSE 17.2 mph27.7 kmh 29.62 in1003.0 mb 0.00 in0.0 mm 0.00 in0.0 mm 0.00 in0.0 mm
05:00 PM 81.9°F27.7°C 57.2°F14.0°C 43% 7.2 mph SSE11.6 kmh SSE 22.2 mph35.7 kmh 29.62 in1003.0 mb 0.00 in0.0 mm 0.00 in0.0 mm 0.00 in0.0 mm
05:10 PM 81.3°F27.4°C 57.3°F14.1°C 44% 6.8 mph SSE10.9 kmh SSE 20.0 mph32.2 kmh 29.62 in1003.0 mb 0.00 in0.0 mm 0.00 in0.0 mm 0.00 in0.0 mm
05:20 PM 81.0°F27.2°C 57.0°F13.9°C 44% 4.5 mph SSE7.2 kmh SSE 16.5 mph26.6 kmh 29.59 in1002.0 mb 0.00 in0.0 mm 0.00 in0.0 mm 0.00 in0.0 mm
05:30 PM 80.4°F26.9°C 57.7°F14.3°C 46% 4.1 mph SE6.6 kmh SE 11.8 mph19.0 kmh 29.62 in1003.0 mb 0.00 in0.0 mm 0.00 in0.0 mm 0.00 in0.0 mm
05:40 PM 80.1°F26.7°C 57.4°F14.1°C 46% 5.0 mph S8.0 kmh S 15.0 mph24.1 kmh 29.62 in1003.0 mb 0.00 in0.0 mm 0.00 in0.0 mm 0.00 in0.0 mm
05:50 PM 79.7°F26.5°C 57.1°F13.9°C 46% 3.7 mph SE6.0 kmh SE 10.4 mph16.7 kmh 29.62 in1003.0 mb 0.00 in0.0 mm 0.00 in0.0 mm 0.00 in0.0 mm
06:00 PM 78.8°F26.0°C 56.3°F13.5°C 46% 5.2 mph SE8.4 kmh SE 14.3 mph23.0 kmh 29.62 in1003.0 mb 0.00 in0.0 mm 0.00 in0.0 mm 0.00 in0.0 mm
06:10 PM 78.3°F25.7°C 56.4°F13.6°C 47% 4.5 mph SSE7.2 kmh SSE 11.5 mph18.5 kmh 29.62 in1003.0 mb 0.00 in0.0 mm 0.00 in0.0 mm 0.00 in0.0 mm
06:20 PM 77.9°F25.5°C 56.6°F13.7°C 48% 4.7 mph SE7.6 kmh SE 10.4 mph16.7 kmh 29.59 in1002.0 mb 0.00 in0.0 mm 0.00 in0.0 mm 0.00 in0.0 mm
06:30 PM 77.5°F25.3°C 56.3°F13.5°C 48% 5.5 mph SE8.9 kmh SE 13.6 mph21.9 kmh 29.59 in1002.0 mb 0.00 in0.0 mm 0.00 in0.0 mm 0.00 in0.0 mm
06:40 PM 77.0°F25.0°C 55.8°F13.2°C 48% 4.3 mph SE6.9 kmh SE 14.0 mph22.5 kmh 29.59 in1002.0 mb 0.00 in0.0 mm 0.00 in0.0 mm 0.00 in0.0 mm
06:50 PM 76.8°F24.9°C 56.8°F13.8°C 50% 3.7 mph SE6.0 kmh SE 11.1 mph17.9 kmh 29.59 in1002.0 mb 0.00 in0.0 mm 0.00 in0.0 mm 0.00 in0.0 mm
07:00 PM 76.3°F24.6°C 56.8°F13.8°C 51% 4.2 mph ESE6.8 kmh ESE 12.5 mph20.1 kmh 29.59 in1002.0 mb 0.00 in0.0 mm 0.00 in0.0 mm 0.00 in0.0 mm
07:10 PM 75.9°F24.4°C 56.5°F13.6°C 51% 3.4 mph SE5.5 kmh SE 11.8 mph19.0 kmh 29.59 in1002.0 mb 0.00 in0.0 mm 0.00 in0.0 mm 0.00 in0.0 mm
07:20 PM 75.7°F24.3°C 56.9°F13.8°C 52% 3.0 mph SE4.8 kmh SE 7.9 mph12.7 kmh 29.59 in1002.0 mb 0.00 in0.0 mm 0.00 in0.0 mm 0.00 in0.0 mm
07:30 PM 75.4°F24.1°C 57.1°F13.9°C 53% 2.5 mph ESE4.0 kmh ESE 8.9 mph14.3 kmh 29.59 in1002.0 mb 0.00 in0.0 mm 0.00 in0.0 mm 0.00 in0.0 mm
07:40 PM 74.8°F23.8°C 57.6°F14.2°C 55% 3.5 mph E5.6 kmh E 8.6 mph13.8 kmh 29.59 in1002.0 mb 0.00 in0.0 mm 0.00 in0.0 mm 0.00 in0.0 mm
07:50 PM 74.3°F23.5°C 57.6°F14.2°C 56% 2.7 mph E4.3 kmh E 6.4 mph10.3 kmh 29.59 in1002.0 mb 0.00 in0.0 mm 0.00 in0.0 mm 0.00 in0.0 mm
08:00 PM 73.8°F23.2°C 57.6°F14.2°C 57% 1.3 mph ESE2.1 kmh ESE 8.6 mph13.8 kmh 29.59 in1002.0 mb 0.00 in0.0 mm 0.00 in0.0 mm 0.00 in0.0 mm
08:10 PM 73.4°F23.0°C 57.7°F14.3°C 58% 0.7 mph S1.1 kmh S 5.4 mph8.7 kmh 29.59 in1002.0 mb 0.00 in0.0 mm 0.00 in0.0 mm 0.00 in0.0 mm
08:20 PM 73.0°F22.8°C 57.9°F14.4°C 59% 6.6 mph S10.6 kmh S 16.5 mph26.6 kmh 29.62 in1003.0 mb 0.00 in0.0 mm 0.00 in0.0 mm 0.00 in0.0 mm
08:30 PM 72.1°F22.3°C 57.5°F14.2°C 60% 6.5 mph S10.5 kmh S 15.7 mph25.3 kmh 29.59 in1002.0 mb 0.00 in0.0 mm 0.00 in0.0 mm 0.00 in0.0 mm
08:40 PM 69.4°F20.8°C 56.3°F13.5°C 63% 6.9 mph S11.1 kmh S 16.8 mph27.0 kmh 29.59 in1002.0 mb 0.00 in0.0 mm 0.00 in0.0 mm 0.00 in0.0 mm
08:50 PM 67.5°F19.7°C 56.5°F13.6°C 68% 6.8 mph S10.9 kmh S 16.1 mph25.9 kmh 29.62 in1003.0 mb 0.00 in0.0 mm 0.00 in0.0 mm 0.00 in0.0 mm
09:00 PM 66.2°F19.0°C 55.7°F13.2°C 69% 4.9 mph SW7.9 kmh SW 11.8 mph19.0 kmh 29.62 in1003.0 mb 0.00 in0.0 mm 0.00 in0.0 mm 0.00 in0.0 mm
09:10 PM 64.9°F18.3°C 55.7°F13.2°C 72% 3.6 mph W5.8 kmh W 9.7 mph15.6 kmh 29.62 in1003.0 mb 0.00 in0.0 mm 0.00 in0.0 mm 0.00 in0.0 mm
09:20 PM 64.4°F18.0°C 55.9°F13.3°C 74% 5.2 mph WNW8.4 kmh WNW 15.4 mph24.8 kmh 29.65 in1004.1 mb 0.00 in0.0 mm 0.00 in0.0 mm 0.00 in0.0 mm
09:30 PM 64.0°F17.8°C 56.0°F13.3°C 75% 4.8 mph NW7.7 kmh NW 12.9 mph20.8 kmh 29.65 in1004.1 mb 0.00 in0.0 mm 0.00 in0.0 mm 0.00 in0.0 mm
09:40 PM 63.9°F17.7°C 56.1°F13.4°C 76% 4.1 mph WNW6.6 kmh WNW 10.4 mph16.7 kmh 29.65 in1004.1 mb 0.00 in0.0 mm 0.00 in0.0 mm 0.00 in0.0 mm
09:50 PM 64.0°F17.8°C 56.3°F13.5°C 76% 1.7 mph W2.7 kmh W 6.8 mph10.9 kmh 29.65 in1004.1 mb 0.00 in0.0 mm 0.00 in0.0 mm 0.00 in0.0 mm
10:00 PM 63.9°F17.7°C 57.2°F14.0°C 79% 4.1 mph NW6.6 kmh NW 11.1 mph17.9 kmh 29.65 in1004.1 mb 0.00 in0.0 mm 0.00 in0.0 mm 0.00 in0.0 mm
10:10 PM 63.5°F17.5°C 56.9°F13.8°C 79% 2.2 mph NNW3.5 kmh NNW 8.6 mph13.8 kmh 29.65 in1004.1 mb 0.00 in0.0 mm 0.00 in0.0 mm 0.00 in0.0 mm
10:20 PM 63.5°F17.5°C 56.9°F13.8°C 79% 3.3 mph WNW5.3 kmh WNW 10.4 mph16.7 kmh 29.65 in1004.1 mb 0.00 in0.0 mm 0.00 in0.0 mm 0.00 in0.0 mm
10:30 PM 63.3°F17.4°C 56.7°F13.7°C 79% 3.1 mph NW5.0 kmh NW 11.5 mph18.5 kmh 29.65 in1004.1 mb 0.00 in0.0 mm 0.00 in0.0 mm 0.00 in0.0 mm
10:40 PM 62.8°F17.1°C 56.2°F13.4°C 79% 3.5 mph NW5.6 kmh NW 10.4 mph16.7 kmh 29.65 in1004.1 mb 0.00 in0.0 mm 0.00 in0.0 mm 0.00 in0.0 mm
10:50 PM 62.1°F16.7°C 55.8°F13.2°C 80% 6.4 mph NW10.3 kmh NW 16.5 mph26.6 kmh 29.65 in1004.1 mb 0.00 in0.0 mm 0.00 in0.0 mm 0.00 in0.0 mm
11:00 PM 61.5°F16.4°C 55.3°F12.9°C 80% 3.9 mph NW6.3 kmh NW 10.4 mph16.7 kmh 29.62 in1003.0 mb 0.00 in0.0 mm 0.00 in0.0 mm 0.00 in0.0 mm
11:10 PM 61.0°F16.1°C 55.4°F13.0°C 82% 5.1 mph NW8.2 kmh NW 12.5 mph20.1 kmh 29.62 in1003.0 mb 0.00 in0.0 mm 0.00 in0.0 mm 0.00 in0.0 mm
11:20 PM 60.8°F16.0°C 55.3°F12.9°C 82% 2.2 mph NW3.5 kmh NW 6.4 mph10.3 kmh 29.62 in1003.0 mb 0.00 in0.0 mm 0.00 in0.0 mm 0.00 in0.0 mm
11:30 PM 60.6°F15.9°C 55.1°F12.8°C 82% 1.1 mph W1.8 kmh W 6.8 mph10.9 kmh 29.65 in1004.1 mb 0.00 in0.0 mm 0.00 in0.0 mm 0.00 in0.0 mm
11:40 PM 60.6°F15.9°C 55.1°F12.8°C 82% 1.4 mph W2.3 kmh W 8.6 mph13.8 kmh 29.65 in1004.1 mb 0.00 in0.0 mm 0.00 in0.0 mm 0.00 in0.0 mm
11:50 PM 60.4°F15.8°C 54.9°F12.7°C 82% 0.9 mph WNW1.4 kmh WNW 6.8 mph10.9 kmh 29.65 in1004.1 mb 0.00 in0.0 mm 0.00 in0.0 mm 0.00 in0.0 mm